createdAt,value
2023-04-21T00:02:27.298Z,7.20
2023-04-21T00:04:56.506Z,7.20
2023-04-21T00:07:24.794Z,7.20
2023-04-21T00:09:52.682Z,7.20
2023-04-21T00:12:20.844Z,7.20
2023-04-21T00:14:48.746Z,7.20
2023-04-21T00:17:18.007Z,7.20
2023-04-21T00:19:45.900Z,7.20
2023-04-21T00:22:14.994Z,7.20
2023-04-21T00:24:42.882Z,7.20
2023-04-21T00:27:11.441Z,7.20
2023-04-21T00:29:40.360Z,7.20
2023-04-21T00:32:10.110Z,7.20
2023-04-21T00:34:39.381Z,7.10
2023-04-21T00:37:07.242Z,7.20
2023-04-21T00:39:35.135Z,7.10
2023-04-21T00:42:03.028Z,7.20
2023-04-21T00:44:31.040Z,7.20
2023-04-21T00:46:59.030Z,7.20
2023-04-21T00:49:26.995Z,7.20
2023-04-21T00:51:56.613Z,7.10
2023-04-21T00:54:26.148Z,7.10
2023-04-21T00:56:54.830Z,7.10
2023-04-21T00:59:22.737Z,7.10
2023-04-21T01:01:50.747Z,7.10
2023-04-21T01:04:18.718Z,7.10
2023-04-21T01:06:46.944Z,7.10
2023-04-21T01:09:16.500Z,7.10
2023-04-21T01:12:01.419Z,7.00
2023-04-21T01:14:29.262Z,7.00
2023-04-21T01:16:57.650Z,7.00
2023-04-21T01:19:26.115Z,6.90
2023-04-21T01:21:57.707Z,7.00
2023-04-21T01:24:25.786Z,6.90
2023-04-21T01:26:53.644Z,6.90
2023-04-21T01:29:21.545Z,7.00
2023-04-21T01:31:49.501Z,7.00
2023-04-21T01:34:17.472Z,7.00
2023-04-21T01:36:45.312Z,7.00
2023-04-21T01:39:14.634Z,7.00
2023-04-21T01:41:42.542Z,7.00
2023-04-21T01:44:10.460Z,7.00
2023-04-21T01:46:38.556Z,7.00
2023-04-21T01:49:06.441Z,7.00
2023-04-21T01:51:34.392Z,7.00
2023-04-21T01:54:02.329Z,7.00
2023-04-21T01:56:31.658Z,7.00
2023-04-21T01:58:59.549Z,6.90
2023-04-21T02:01:27.841Z,7.00
2023-04-21T02:03:55.838Z,6.90
2023-04-21T02:06:23.861Z,6.90
2023-04-21T02:08:51.757Z,6.90
2023-04-21T02:11:19.640Z,6.90
2023-04-21T02:13:48.843Z,6.90
2023-04-21T02:16:16.809Z,6.80
2023-04-21T02:18:44.743Z,6.80
2023-04-21T02:21:12.809Z,6.70
2023-04-21T02:23:40.730Z,6.70
2023-04-21T02:26:08.792Z,6.70
2023-04-21T02:28:36.688Z,6.70
2023-04-21T02:31:06.171Z,6.70
2023-04-21T02:33:34.222Z,6.70
2023-04-21T02:36:02.163Z,6.70
2023-04-21T02:38:30.272Z,6.60
2023-04-21T02:40:58.205Z,6.60
2023-04-21T02:43:26.720Z,6.60
2023-04-21T02:45:55.431Z,6.60
2023-04-21T02:48:24.637Z,6.60
2023-04-21T02:50:53.578Z,6.60
2023-04-21T02:53:21.678Z,6.70
2023-04-21T02:55:50.246Z,6.70
2023-04-21T02:58:18.372Z,6.70
2023-04-21T03:00:46.335Z,6.70
2023-04-21T03:03:16.313Z,6.70
2023-04-21T03:05:45.711Z,6.70
2023-04-21T03:08:13.660Z,6.70
2023-04-21T03:10:41.734Z,6.70
2023-04-21T03:13:09.662Z,6.60
2023-04-21T03:15:37.510Z,6.60
2023-04-21T03:18:05.767Z,6.60
2023-04-21T03:20:33.735Z,6.60
2023-04-21T03:23:03.035Z,6.70
2023-04-21T03:25:30.964Z,6.60
2023-04-21T03:27:58.904Z,6.60
2023-04-21T03:30:26.980Z,6.60
2023-04-21T03:32:55.516Z,6.60
2023-04-21T03:35:23.465Z,6.60
2023-04-21T03:37:51.389Z,6.60
2023-04-21T03:40:20.638Z,6.50
2023-04-21T03:42:48.509Z,6.50
2023-04-21T03:45:16.386Z,6.50
2023-04-21T03:47:44.330Z,6.50
2023-04-21T03:50:12.306Z,6.50
2023-04-21T03:52:40.459Z,6.50
2023-04-21T03:55:11.662Z,6.60
2023-04-21T03:57:41.951Z,6.60
2023-04-21T04:00:11.288Z,6.60
2023-04-21T04:02:39.469Z,6.60
2023-04-21T04:05:08.728Z,6.60
2023-04-21T04:07:36.828Z,6.60
2023-04-21T04:10:04.994Z,6.60
2023-04-21T04:12:32.864Z,6.60
2023-04-21T04:15:02.732Z,6.50
2023-04-21T04:17:30.622Z,6.50
2023-04-21T04:19:58.537Z,6.50
2023-04-21T04:22:26.536Z,6.50
2023-04-21T04:24:55.312Z,6.50
2023-04-21T04:27:23.187Z,6.40
2023-04-21T04:29:51.072Z,6.40
2023-04-21T04:32:20.773Z,6.40
2023-04-21T04:34:48.677Z,6.40
2023-04-21T04:37:16.637Z,6.40
2023-04-21T04:39:44.531Z,6.40
2023-04-21T04:42:12.555Z,6.40
2023-04-21T04:44:41.562Z,6.40
2023-04-21T04:47:09.566Z,6.40
2023-04-21T04:49:38.826Z,6.40
2023-04-21T04:52:07.057Z,6.40
2023-04-21T04:54:34.985Z,6.40
2023-04-21T04:57:03.451Z,6.40
2023-04-21T04:59:31.570Z,6.40
2023-04-21T05:01:59.514Z,6.40
2023-04-21T05:04:27.881Z,6.40
2023-04-21T05:06:57.405Z,6.40
2023-04-21T05:09:25.855Z,6.40
2023-04-21T05:11:53.768Z,6.50
2023-04-21T05:14:21.796Z,6.50
2023-04-21T05:16:49.873Z,6.40
2023-04-21T05:19:18.874Z,6.50
2023-04-21T05:21:46.822Z,6.50
2023-04-21T05:24:16.100Z,6.50
2023-04-21T05:26:43.982Z,6.50
2023-04-21T05:29:11.817Z,6.50
2023-04-21T05:31:40.011Z,6.50
2023-04-21T05:34:07.942Z,6.60
2023-04-21T05:36:35.870Z,6.60
2023-04-21T05:39:03.775Z,6.70
2023-04-21T05:41:33.032Z,6.70
2023-04-21T05:44:00.937Z,6.70
2023-04-21T05:46:30.190Z,6.70
2023-04-21T05:48:58.216Z,6.80
2023-04-21T05:51:27.125Z,6.80
2023-04-21T05:53:55.122Z,6.80
2023-04-21T05:56:23.186Z,6.90
2023-04-21T05:58:52.428Z,6.90
2023-04-21T06:01:20.602Z,6.90
2023-04-21T06:03:50.365Z,7.00
2023-04-21T06:06:18.815Z,7.10
2023-04-21T06:08:46.700Z,7.10
2023-04-21T06:11:14.661Z,7.10
2023-04-21T06:13:43.646Z,7.20
2023-04-21T06:16:13.136Z,7.20
2023-04-21T06:18:41.118Z,7.20
2023-04-21T06:21:09.314Z,7.30
2023-04-21T06:23:37.188Z,7.30
2023-04-21T06:26:06.945Z,7.30
2023-04-21T06:28:36.540Z,7.30
2023-04-21T06:31:08.498Z,7.30
2023-04-21T06:33:38.235Z,7.30
2023-04-21T06:36:07.041Z,7.30
2023-04-21T06:38:34.978Z,7.30
2023-04-21T06:41:04.508Z,7.40
2023-04-21T06:43:32.501Z,7.40
2023-04-21T06:46:00.640Z,7.40
2023-04-21T06:48:30.129Z,7.40
2023-04-21T06:51:00.539Z,7.40
2023-04-21T06:53:28.472Z,7.50
2023-04-21T06:55:56.396Z,7.50
2023-04-21T06:58:24.455Z,7.50
2023-04-21T07:00:52.346Z,7.60
2023-04-21T07:03:20.358Z,7.60
2023-04-21T07:05:48.485Z,7.70
2023-04-21T07:08:17.806Z,7.70
2023-04-21T07:10:46.144Z,7.70
2023-04-21T07:13:15.899Z,7.80
2023-04-21T07:15:46.851Z,7.80
2023-04-21T07:18:15.004Z,7.80
2023-04-21T07:20:43.116Z,7.90
2023-04-21T07:23:11.030Z,7.90
2023-04-21T07:25:40.306Z,8.00
2023-04-21T07:28:08.174Z,8.00
2023-04-21T07:30:39.160Z,8.10
2023-04-21T07:33:07.216Z,8.10
2023-04-21T07:35:35.223Z,8.10
2023-04-21T07:38:03.133Z,8.10
2023-04-21T07:40:31.808Z,8.20
2023-04-21T07:43:01.087Z,8.20
2023-04-21T07:45:29.019Z,8.20
2023-04-21T07:47:57.202Z,8.30
2023-04-21T07:50:25.178Z,8.40
2023-04-21T07:52:53.156Z,8.40
2023-04-21T07:55:21.217Z,8.40
2023-04-21T07:57:49.128Z,8.50
2023-04-21T08:00:19.221Z,8.50
2023-04-21T08:02:47.274Z,8.60
2023-04-21T08:05:15.345Z,8.80
2023-04-21T08:07:43.301Z,9.10
2023-04-21T08:10:12.108Z,9.40
2023-04-21T08:12:40.094Z,9.60
2023-04-21T08:15:08.894Z,9.70
2023-04-21T08:17:40.571Z,9.80
2023-04-21T08:20:09.970Z,9.90
2023-04-21T08:22:38.023Z,9.90
2023-04-21T08:25:07.167Z,9.90
2023-04-21T08:27:35.352Z,9.90
2023-04-21T08:30:03.381Z,10.00
2023-04-21T08:32:31.310Z,10.00
2023-04-21T08:35:00.690Z,10.10
2023-04-21T08:37:29.210Z,10.20
2023-04-21T08:39:57.144Z,10.40
2023-04-21T08:42:25.052Z,10.60
2023-04-21T08:44:52.985Z,10.90
2023-04-21T08:47:22.659Z,11.10
2023-04-21T08:49:54.251Z,11.30
2023-04-21T08:52:23.545Z,11.70
2023-04-21T08:54:53.156Z,11.90
2023-04-21T08:57:21.093Z,12.00
2023-04-21T08:59:49.057Z,12.20
2023-04-21T09:02:18.714Z,12.50
2023-04-21T09:04:48.750Z,12.80
2023-04-21T09:07:33.329Z,13.10
2023-04-21T09:10:01.969Z,13.30
2023-04-21T09:12:30.765Z,13.50
2023-04-21T09:14:59.124Z,13.80
2023-04-21T09:17:32.459Z,14.00
2023-04-21T09:20:14.601Z,14.30
2023-04-21T09:22:44.495Z,14.50
2023-04-21T09:25:16.575Z,14.80
2023-04-21T09:27:44.824Z,15.00
2023-04-21T09:30:13.308Z,15.20
2023-04-21T09:32:42.133Z,15.40
2023-04-21T09:35:11.761Z,15.50
2023-04-21T09:37:40.495Z,15.70
2023-04-21T09:40:13.826Z,15.90
2023-04-21T09:42:44.769Z,16.00
2023-04-21T09:47:48.257Z,16.20
2023-04-21T09:50:20.639Z,16.30
2023-04-21T09:52:58.050Z,16.50
2023-04-21T09:55:30.712Z,16.70
2023-04-21T09:58:00.532Z,16.90
2023-04-21T10:00:31.043Z,17.10
2023-04-21T10:03:05.401Z,17.20
2023-04-21T10:05:33.628Z,17.30
2023-04-21T10:08:01.614Z,17.40
2023-04-21T10:10:31.862Z,17.50
2023-04-21T10:13:00.248Z,17.60
2023-04-21T10:15:33.254Z,17.70
2023-04-21T10:18:14.409Z,17.90
2023-04-21T10:20:51.981Z,18.00
2023-04-21T10:23:28.210Z,18.20
2023-04-21T10:26:02.112Z,18.40
2023-04-21T10:28:53.187Z,18.60
2023-04-21T10:31:26.970Z,18.70
2023-04-21T10:34:13.864Z,18.70
2023-04-21T10:36:49.424Z,18.80
2023-04-21T10:39:27.346Z,18.90
2023-04-21T10:41:58.890Z,19.00
2023-04-21T10:44:29.692Z,19.10
2023-04-21T10:46:59.711Z,19.10
2023-04-21T10:49:28.465Z,19.10
2023-04-21T10:52:16.374Z,19.10
2023-04-21T10:54:46.044Z,19.10
2023-04-21T10:57:16.056Z,19.00
2023-04-21T10:59:44.180Z,19.10
2023-04-21T11:02:12.791Z,19.20
2023-04-21T11:04:45.284Z,19.30
2023-04-21T11:07:14.733Z,19.40
2023-04-21T11:09:43.460Z,19.50
2023-04-21T11:12:12.604Z,19.50
2023-04-21T11:14:42.406Z,19.70
2023-04-21T11:17:12.315Z,19.80
2023-04-21T11:19:40.449Z,19.90
2023-04-21T11:22:08.201Z,20.00
2023-04-21T11:24:36.520Z,20.00
2023-04-21T11:27:05.326Z,20.10
2023-04-21T11:29:34.226Z,20.20
2023-04-21T11:32:03.373Z,20.20
2023-04-21T11:34:31.354Z,20.20
2023-04-21T11:36:59.075Z,20.40
2023-04-21T11:39:27.012Z,20.40
2023-04-21T11:41:54.759Z,20.60
2023-04-21T11:44:32.493Z,20.70
2023-04-21T11:47:00.256Z,20.80
2023-04-21T11:49:30.484Z,20.90
2023-04-21T11:51:58.249Z,20.90
2023-04-21T11:54:26.152Z,21.00
2023-04-21T11:56:55.328Z,21.00
2023-04-21T11:59:25.727Z,21.10
2023-04-21T12:01:54.431Z,21.10
2023-04-21T12:04:22.976Z,21.20
2023-04-21T12:06:58.127Z,21.20
2023-04-21T12:09:25.898Z,21.20
2023-04-21T12:11:54.342Z,21.40
2023-04-21T12:14:23.117Z,21.40
2023-04-21T12:16:51.513Z,21.40
2023-04-21T12:19:26.576Z,21.50
2023-04-21T12:21:54.914Z,21.60
2023-04-21T12:24:24.082Z,21.70
2023-04-21T12:26:51.815Z,21.80
2023-04-21T12:29:19.582Z,21.80
2023-04-21T12:31:47.310Z,21.80
2023-04-21T12:34:15.100Z,21.80
2023-04-21T12:36:42.885Z,21.90
2023-04-21T12:39:11.152Z,22.00
2023-04-21T12:41:40.203Z,22.00
2023-04-21T12:44:07.982Z,22.00
2023-04-21T12:46:35.966Z,22.10
2023-04-21T12:49:06.363Z,22.20
2023-04-21T12:51:34.145Z,22.30
2023-04-21T12:54:02.450Z,22.30
2023-04-21T12:56:31.433Z,22.30
2023-04-21T12:59:00.481Z,22.30
2023-04-21T13:01:28.287Z,22.30
2023-04-21T13:03:56.119Z,22.10
2023-04-21T13:06:23.982Z,22.00
2023-04-21T13:08:51.661Z,21.90
2023-04-21T13:11:19.411Z,21.80
2023-04-21T13:13:47.106Z,21.70
2023-04-21T13:16:16.734Z,21.60
2023-04-21T13:18:45.793Z,21.50
2023-04-21T13:21:13.501Z,21.40
2023-04-21T13:23:41.382Z,21.30
2023-04-21T13:26:09.305Z,21.20
2023-04-21T13:28:37.290Z,21.10
2023-04-21T13:31:05.471Z,21.10
2023-04-21T13:33:35.217Z,20.90
2023-04-21T13:36:03.299Z,20.80
2023-04-21T13:38:31.571Z,20.80
2023-04-21T13:41:00.459Z,20.70
2023-04-21T13:43:28.235Z,20.60
2023-04-21T13:45:55.989Z,20.50
2023-04-21T13:48:24.357Z,20.50
2023-04-21T13:50:53.574Z,20.40
2023-04-21T13:53:21.720Z,20.30
2023-04-21T13:55:49.502Z,20.30
2023-04-21T13:58:17.912Z,20.20
2023-04-21T14:00:45.690Z,20.20
2023-04-21T14:03:14.134Z,20.10
2023-04-21T14:05:42.074Z,20.00
2023-04-21T14:08:11.284Z,20.00
2023-04-21T14:10:39.078Z,19.90
2023-04-21T14:13:06.857Z,19.90
2023-04-21T14:15:34.542Z,19.90
2023-04-21T14:18:02.401Z,19.80
2023-04-21T14:20:30.240Z,19.70
2023-04-21T14:22:57.938Z,19.70
2023-04-21T14:25:26.996Z,19.70
2023-04-21T14:27:54.810Z,19.60
2023-04-21T14:30:22.529Z,19.60
2023-04-21T14:32:50.310Z,19.60
2023-04-21T14:35:18.115Z,19.60
2023-04-21T14:37:45.907Z,19.60
2023-04-21T14:40:13.695Z,19.50
2023-04-21T14:42:42.844Z,19.50
2023-04-21T14:45:11.186Z,19.50
2023-04-21T14:47:39.247Z,19.50
2023-04-21T14:50:07.572Z,19.50
2023-04-21T14:52:36.084Z,19.40
2023-04-21T14:55:04.241Z,19.40
2023-04-21T14:57:32.035Z,19.40
2023-04-21T15:00:02.083Z,19.40
2023-04-21T15:02:30.066Z,19.40
2023-04-21T15:04:58.051Z,19.30
2023-04-21T15:07:25.798Z,19.30
2023-04-21T15:09:53.765Z,19.30
2023-04-21T15:12:21.765Z,19.30
2023-04-21T15:14:49.677Z,19.30
2023-04-21T15:17:18.757Z,19.30
2023-04-21T15:19:46.480Z,19.30
2023-04-21T15:22:15.096Z,19.20
2023-04-21T15:24:42.943Z,19.20
2023-04-21T15:27:10.675Z,19.10
2023-04-21T15:29:38.537Z,19.10
2023-04-21T15:32:06.298Z,19.10
2023-04-21T15:34:35.377Z,19.00
2023-04-21T15:37:03.103Z,19.00
2023-04-21T15:39:30.851Z,19.00
2023-04-21T15:41:59.301Z,18.90
2023-04-21T15:44:27.083Z,18.90
2023-04-21T15:46:55.094Z,18.90
2023-04-21T15:49:25.716Z,18.90
2023-04-21T15:51:55.210Z,18.80
2023-04-21T15:54:23.059Z,18.90
2023-04-21T15:56:50.908Z,18.90
2023-04-21T15:59:18.625Z,18.90
2023-04-21T16:01:46.491Z,18.80
2023-04-21T16:04:17.047Z,18.80
2023-04-21T16:06:44.925Z,18.80
2023-04-21T16:09:14.123Z,18.80
2023-04-21T16:11:42.634Z,18.70
2023-04-21T16:14:11.085Z,18.70
2023-04-21T16:16:38.895Z,18.70
2023-04-21T16:19:06.863Z,18.70
2023-04-21T16:21:34.857Z,18.70
2023-04-21T16:24:07.396Z,18.60
2023-04-21T16:26:37.020Z,18.60
2023-04-21T16:29:04.890Z,18.60
2023-04-21T16:31:35.601Z,18.60
2023-04-21T16:34:03.437Z,18.60
2023-04-21T16:36:32.300Z,18.60
2023-04-21T16:39:03.115Z,18.60
2023-04-21T16:41:31.303Z,18.60
2023-04-21T16:44:00.667Z,18.60
2023-04-21T16:46:28.762Z,18.70
2023-04-21T16:48:56.621Z,18.70
2023-04-21T16:51:26.132Z,18.60
2023-04-21T16:53:54.622Z,18.60
2023-04-21T16:56:22.441Z,18.60
2023-04-21T16:58:50.175Z,18.50
2023-04-21T17:01:19.318Z,18.60
2023-04-21T17:03:47.191Z,18.50
2023-04-21T17:06:19.364Z,18.50
2023-04-21T17:08:47.148Z,18.40
2023-04-21T17:11:14.970Z,18.50
2023-04-21T17:13:42.689Z,18.50
2023-04-21T17:16:13.497Z,18.50
2023-04-21T17:18:42.672Z,18.40
2023-04-21T17:21:10.436Z,18.40
2023-04-21T17:23:39.581Z,18.40
2023-04-21T17:26:07.571Z,18.40
2023-04-21T17:28:35.339Z,18.30
2023-04-21T17:31:14.544Z,18.30
2023-04-21T17:33:45.424Z,18.30
2023-04-21T17:36:13.315Z,18.30
2023-04-21T17:38:42.792Z,18.30
2023-04-21T17:41:10.719Z,18.20
2023-04-21T17:43:38.408Z,18.20
2023-04-21T17:46:06.964Z,18.20
2023-04-21T17:48:34.770Z,18.20
2023-04-21T17:51:04.444Z,18.10
2023-04-21T17:53:32.210Z,18.00
2023-04-21T17:56:00.460Z,18.00
2023-04-21T17:58:28.286Z,18.00
2023-04-21T18:00:56.076Z,17.90
2023-04-21T18:03:23.972Z,17.90
2023-04-21T18:05:52.482Z,17.90
2023-04-21T18:08:21.829Z,17.80
2023-04-21T18:10:49.563Z,17.80
2023-04-21T18:13:17.368Z,17.80
2023-04-21T18:15:45.194Z,17.70
2023-04-21T18:18:13.076Z,17.70
2023-04-21T18:20:41.424Z,17.70
2023-04-21T18:23:09.324Z,17.60
2023-04-21T18:25:42.095Z,17.60
2023-04-21T18:28:12.600Z,17.60
2023-04-21T18:30:41.736Z,17.60
2023-04-21T18:33:09.586Z,17.60
2023-04-21T18:35:37.337Z,17.50
2023-04-21T18:38:05.854Z,17.50
2023-04-21T18:40:33.647Z,17.50
2023-04-21T18:43:02.925Z,17.50
2023-04-21T18:45:30.614Z,17.50
2023-04-21T18:47:58.423Z,17.50
2023-04-21T18:50:27.459Z,17.50
2023-04-21T18:52:55.639Z,17.50
2023-04-21T18:55:23.429Z,17.50
2023-04-21T18:57:51.138Z,17.40
2023-04-21T19:00:20.456Z,17.40
2023-04-21T19:02:50.641Z,17.40
2023-04-21T19:05:18.881Z,17.40
2023-04-21T19:07:47.359Z,17.40
2023-04-21T19:10:15.086Z,17.30
2023-04-21T19:12:42.865Z,17.20
2023-04-21T19:15:11.764Z,17.20
2023-04-21T19:17:41.341Z,17.20
2023-04-21T19:20:09.842Z,17.20
2023-04-21T19:22:37.507Z,17.20
2023-04-21T19:25:05.950Z,17.10
2023-04-21T19:27:33.905Z,17.10
2023-04-21T19:30:01.663Z,17.10
2023-04-21T19:32:29.571Z,17.00
2023-04-21T19:34:58.828Z,17.00
2023-04-21T19:37:28.009Z,17.00
2023-04-21T19:39:55.957Z,17.00
2023-04-21T19:42:23.697Z,16.90
2023-04-21T19:44:51.579Z,16.90
2023-04-21T19:47:19.332Z,16.90
2023-04-21T19:49:47.138Z,16.80
2023-04-21T19:52:16.295Z,16.80
2023-04-21T19:54:44.053Z,16.80
2023-04-21T19:57:11.894Z,16.70
2023-04-21T19:59:39.958Z,16.70
2023-04-21T20:02:08.444Z,16.70
2023-04-21T20:04:37.445Z,16.70
2023-04-21T20:07:05.295Z,16.60
2023-04-21T20:09:34.329Z,16.60
2023-04-21T20:12:02.544Z,16.60
2023-04-21T20:14:30.424Z,16.60
2023-04-21T20:16:58.440Z,16.60
2023-04-21T20:19:27.000Z,16.60
2023-04-21T20:21:54.844Z,16.50
2023-04-21T20:24:22.917Z,16.40
2023-04-21T20:26:52.044Z,16.40
2023-04-21T20:29:19.825Z,16.40
2023-04-21T20:31:47.787Z,16.30
2023-04-21T20:34:15.656Z,16.30
2023-04-21T20:36:43.563Z,16.20
2023-04-21T20:39:11.598Z,16.10
2023-04-21T20:41:39.338Z,16.00
2023-04-21T20:44:09.082Z,15.90
2023-04-21T20:46:36.897Z,15.80
2023-04-21T20:49:04.943Z,15.80
2023-04-21T20:51:33.042Z,15.70
2023-04-21T20:54:00.887Z,15.70
2023-04-21T20:56:28.635Z,15.70
2023-04-21T20:58:56.440Z,15.70
2023-04-21T21:01:26.382Z,15.70
2023-04-21T21:03:56.272Z,15.60
2023-04-21T21:06:24.185Z,15.60
2023-04-21T21:08:51.973Z,15.60
2023-04-21T21:11:20.861Z,15.60
2023-04-21T21:13:48.536Z,15.60
2023-04-21T21:16:16.291Z,15.50
2023-04-21T21:18:45.488Z,15.50
2023-04-21T21:21:13.367Z,15.50
2023-04-21T21:23:42.301Z,15.40
2023-04-21T21:26:10.069Z,15.50
2023-04-21T21:28:37.813Z,15.50
2023-04-21T21:31:05.556Z,15.50
2023-04-21T21:33:33.270Z,15.50
2023-04-21T21:36:02.409Z,15.50
2023-04-21T21:38:30.149Z,15.40
2023-04-21T21:40:57.903Z,15.40
2023-04-21T21:43:25.757Z,15.30
2023-04-21T21:45:54.385Z,15.20
2023-04-21T21:48:22.163Z,15.30
2023-04-21T21:50:49.892Z,15.20
2023-04-21T21:53:19.006Z,15.20
2023-04-21T21:55:46.816Z,15.20
2023-04-21T21:58:14.641Z,15.20
2023-04-21T22:00:42.554Z,15.20
2023-04-21T22:03:11.034Z,15.20
2023-04-21T22:05:38.976Z,15.20
2023-04-21T22:08:06.710Z,15.20
2023-04-21T22:10:35.914Z,15.20
2023-04-21T22:13:03.774Z,15.10
2023-04-21T22:15:31.464Z,15.10
2023-04-21T22:17:59.629Z,15.10
2023-04-21T22:20:28.143Z,15.10
2023-04-21T22:22:56.066Z,15.10
2023-04-21T22:25:27.005Z,15.10
2023-04-21T22:27:56.249Z,15.10
2023-04-21T22:30:24.058Z,15.10
2023-04-21T22:32:51.823Z,15.00
2023-04-21T22:35:19.605Z,15.00
2023-04-21T22:37:47.344Z,15.00
2023-04-21T22:40:15.089Z,15.00
2023-04-21T22:42:43.034Z,15.00
2023-04-21T22:45:12.512Z,15.00
2023-04-21T22:47:40.381Z,15.00
2023-04-21T22:50:09.311Z,14.90
2023-04-21T22:52:37.061Z,14.90
2023-04-21T22:55:05.446Z,14.90
2023-04-21T22:57:33.231Z,14.90
2023-04-21T23:00:01.054Z,14.90
2023-04-21T23:02:30.189Z,14.80
2023-04-21T23:04:58.056Z,14.80
2023-04-21T23:07:25.820Z,14.80
2023-04-21T23:09:53.499Z,14.70
2023-04-21T23:12:21.210Z,14.70
2023-04-21T23:14:49.189Z,14.60
2023-04-21T23:17:16.905Z,14.60
2023-04-21T23:19:45.981Z,14.60
2023-04-21T23:22:13.785Z,14.60
2023-04-21T23:24:41.563Z,14.60
2023-04-21T23:27:09.346Z,14.50
2023-04-21T23:29:37.290Z,14.60
2023-04-21T23:32:05.451Z,14.50
2023-04-21T23:34:33.241Z,14.50
2023-04-21T23:37:02.373Z,14.50
2023-04-21T23:39:30.124Z,14.50
2023-04-21T23:41:57.915Z,14.50
2023-04-21T23:44:25.864Z,14.40
2023-04-21T23:46:53.566Z,14.40
2023-04-21T23:49:21.901Z,14.40
2023-04-21T23:51:49.649Z,14.40
2023-04-21T23:54:18.794Z,14.30
2023-04-21T23:56:46.493Z,14.30
2023-04-21T23:59:14.166Z,14.30
